PST,Max TemperatureF,Mean TemperatureF,Min TemperatureF,Max Dew PointF,MeanDew PointF,Min DewpointF,Max Humidity, Mean Humidity, Min Humidity, Max Sea Level PressureIn, Mean Sea Level PressureIn, Min Sea Level PressureIn, Max VisibilityMiles, Mean VisibilityMiles, Min VisibilityMiles, Max Wind SpeedMPH, Mean Wind SpeedMPH, Max Gust SpeedMPH,PrecipitationIn, CloudCover, Events, WindDirDegrees
2013-1-1,39,32,25,35,29,22,100,91,81,30.51,30.44,30.37,10,3,0,8,1,10,T,6,Fog,53
2013-1-2,42,34,25,35,28,22,100,87,73,30.35,30.27,30.20,10,2,0,5,1,5,0.00,4,Fog,141
2013-1-3,40,30,20,37,27,19,100,80,59,30.20,30.16,30.13,10,7,2,12,3,16,0.08,4,Rain,206
2013-1-4,49,44,39,42,40,37,100,90,80,30.33,30.24,30.17,10,5,0,14,5,18,0.04,7,Fog-Rain,229
2013-1-5,42,40,37,40,38,34,100,87,73,30.20,30.16,30.13,10,5,0,15,5,18,0.05,8,Fog-Rain,212
2013-1-6,44,40,35,40,37,34,93,85,76,30.20,30.13,29.99,10,8,4,18,7,24,0.14,7,Rain,217
2013-1-7,50,46,42,48,43,39,100,93,86,30.18,29.99,29.86,9,5,2,22,13,29,0.51,8,Rain,205
2013-1-8,51,47,42,49,45,41,100,95,89,30.18,29.95,29.77,10,4,2,24,11,31,0.90,8,Rain,191
2013-1-9,50,42,33,48,39,32,100,90,79,29.97,29.82,29.71,10,7,2,16,9,24,1.03,6,Rain,213
2013-1-10,38,36,33,35,33,32,100,93,85,30.13,30.05,29.96,10,5,1,13,3,16,0.01,8,,222
2013-1-11,39,31,23,32,27,22,100,77,54,30.34,30.23,30.12,10,4,0,12,2,14,0.00,4,Fog,112
2013-1-12,38,29,19,30,23,18,100,82,64,30.45,30.38,30.32,10,4,0,12,2,13,0.00,2,Fog,39
2013-1-13,36,27,18,28,22,16,100,82,64,30.51,30.48,30.44,10,5,0,7,1,8,0.00,2,Fog,17
2013-1-14,33,26,19,32,27,18,100,96,91,30.58,30.53,30.48,7,3,2,8,2,10,0.03,6,Snow,198
2013-1-15,43,34,24,36,30,23,100,85,70,30.71,30.66,30.58,10,4,0,14,3,17,0.00,5,Fog,6
2013-1-16,37,31,24,34,28,23,100,91,82,30.68,30.61,30.51,4,1,0,6,1,6,0.00,6,Fog,157
2013-1-17,35,33,30,33,30,27,100,91,82,30.53,30.43,30.30,3,1,0,9,2,10,0.00,8,Fog,163
2013-1-18,44,34,24,35,31,23,100,90,79,30.34,30.30,30.27,9,4,0,12,5,13,0.00,6,Fog,135
2013-1-19,37,35,32,35,34,32,100,93,85,30.39,30.35,30.33,6,2,0,10,5,12,0.00,8,Fog,63
2013-1-20,37,34,31,36,33,31,100,96,92,30.40,30.34,30.27,4,1,0,9,4,11,0.00,8,Fog,71
2013-1-21,34,31,28,34,31,28,100,96,92,30.29,30.21,30.15,1,0,0,7,3,9,0.00,8,Fog,129
2013-1-22,36,29,22,34,29,22,100,91,82,30.15,30.04,29.93,10,6,0,6,1,7,0.00,2,Fog,142
2013-1-23,40,37,34,38,35,31,100,91,82,30.17,29.99,29.87,10,7,3,15,6,18,0.17,7,Rain,207
2013-1-24,44,38,32,42,37,31,100,88,76,30.23,30.14,30.06,10,3,0,10,2,14,0.26,7,Fog-Rain,240
2013-1-25,53,42,30,45,38,31,100,86,71,30.07,30.00,29.94,10,5,0,15,4,19,0.05,6,Fog-Rain,210
2013-1-26,46,38,29,40,37,30,100,88,76,30.06,29.95,29.89,10,8,0,15,7,19,0.11,7,Fog-Rain,210
2013-1-27,41,39,36,39,37,36,100,93,86,30.09,30.04,30.00,10,9,4,15,9,19,0.14,7,Rain,204
2013-1-28,44,42,39,41,38,34,96,83,70,30.12,30.08,30.02,10,10,7,18,10,24,0.05,7,Rain,229
2013-1-29,49,46,43,44,42,40,93,87,80,30.40,30.28,30.12,10,10,9,17,10,23,0.01,8,Rain,224
2013-1-30,50,47,44,48,45,43,100,93,86,30.40,30.37,30.34,10,8,5,15,10,18,0.29,8,Rain,203
2013-1-31,49,46,42,46,44,41,100,93,86,30.42,30.36,30.32,10,7,3,15,7,19,0.04,7,Rain,205